sensor_id;sensor_type;location;lat;lon;timestamp;P1;durP1;ratioP1;P2;durP2;ratioP2
47960;SDS011;33721;48.852;9.936;2023-09-18T00:00:40;7.18;;;4.97;;
47960;SDS011;33721;48.852;9.936;2023-09-18T00:03:07;8.40;;;5.30;;
47960;SDS011;33721;48.852;9.936;2023-09-18T00:05:33;10.63;;;5.60;;
47960;SDS011;33721;48.852;9.936;2023-09-18T00:07:59;11.10;;;5.85;;
47960;SDS011;33721;48.852;9.936;2023-09-18T00:10:26;8.75;;;5.63;;
47960;SDS011;33721;48.852;9.936;2023-09-18T00:12:53;9.65;;;5.93;;
47960;SDS011;33721;48.852;9.936;2023-09-18T00:15:19;7.70;;;5.47;;
47960;SDS011;33721;48.852;9.936;2023-09-18T00:17:45;9.00;;;5.53;;
47960;SDS011;33721;48.852;9.936;2023-09-18T00:20:11;8.73;;;5.70;;
47960;SDS011;33721;48.852;9.936;2023-09-18T00:22:37;9.85;;;5.80;;
47960;SDS011;33721;48.852;9.936;2023-09-18T00:25:02;9.38;;;5.72;;
47960;SDS011;33721;48.852;9.936;2023-09-18T00:27:29;9.05;;;5.38;;
47960;SDS011;33721;48.852;9.936;2023-09-18T00:29:54;8.27;;;5.15;;
47960;SDS011;33721;48.852;9.936;2023-09-18T00:32:20;9.60;;;5.63;;
47960;SDS011;33721;48.852;9.936;2023-09-18T00:34:46;10.35;;;6.00;;
47960;SDS011;33721;48.852;9.936;2023-09-18T00:37:11;9.75;;;5.45;;
47960;SDS011;33721;48.852;9.936;2023-09-18T00:39:37;8.68;;;6.05;;
47960;SDS011;33721;48.852;9.936;2023-09-18T00:42:03;9.77;;;5.75;;
47960;SDS011;33721;48.852;9.936;2023-09-18T00:44:29;10.80;;;5.60;;
47960;SDS011;33721;48.852;9.936;2023-09-18T00:46:55;8.65;;;6.05;;
47960;SDS011;33721;48.852;9.936;2023-09-18T00:49:21;7.78;;;5.05;;
47960;SDS011;33721;48.852;9.936;2023-09-18T00:51:49;12.57;;;5.55;;
47960;SDS011;33721;48.852;9.936;2023-09-18T00:54:16;8.82;;;5.88;;
47960;SDS011;33721;48.852;9.936;2023-09-18T00:56:44;10.55;;;5.88;;
47960;SDS011;33721;48.852;9.936;2023-09-18T00:59:11;11.32;;;5.32;;
47960;SDS011;33721;48.852;9.936;2023-09-18T01:01:38;8.18;;;5.22;;
47960;SDS011;33721;48.852;9.936;2023-09-18T01:04:04;9.45;;;5.70;;
47960;SDS011;33721;48.852;9.936;2023-09-18T01:06:30;13.88;;;5.70;;
47960;SDS011;33721;48.852;9.936;2023-09-18T01:08:56;9.85;;;5.45;;
47960;SDS011;33721;48.852;9.936;2023-09-18T01:16:32;9.45;;;5.35;;
47960;SDS011;33721;48.852;9.936;2023-09-18T01:19:10;8.02;;;5.22;;
47960;SDS011;33721;48.852;9.936;2023-09-18T01:21:36;10.65;;;5.60;;
47960;SDS011;33721;48.852;9.936;2023-09-18T01:24:02;10.15;;;5.78;;
47960;SDS011;33721;48.852;9.936;2023-09-18T01:26:28;9.90;;;5.47;;
47960;SDS011;33721;48.852;9.936;2023-09-18T01:28:53;7.75;;;5.40;;
47960;SDS011;33721;48.852;9.936;2023-09-18T01:31:19;10.90;;;5.60;;
47960;SDS011;33721;48.852;9.936;2023-09-18T01:33:45;8.50;;;5.68;;
47960;SDS011;33721;48.852;9.936;2023-09-18T01:36:12;8.80;;;5.60;;
47960;SDS011;33721;48.852;9.936;2023-09-18T01:38:39;8.70;;;5.63;;
47960;SDS011;33721;48.852;9.936;2023-09-18T01:41:06;9.13;;;5.72;;
47960;SDS011;33721;48.852;9.936;2023-09-18T01:43:32;10.20;;;5.90;;
47960;SDS011;33721;48.852;9.936;2023-09-18T01:45:57;15.85;;;6.65;;
47960;SDS011;33721;48.852;9.936;2023-09-18T01:48:23;9.15;;;5.45;;
47960;SDS011;33721;48.852;9.936;2023-09-18T01:50:49;10.25;;;6.13;;
47960;SDS011;33721;48.852;9.936;2023-09-18T01:53:14;9.77;;;5.90;;
47960;SDS011;33721;48.852;9.936;2023-09-18T01:55:40;11.00;;;5.43;;
47960;SDS011;33721;48.852;9.936;2023-09-18T01:58:06;11.73;;;5.75;;
47960;SDS011;33721;48.852;9.936;2023-09-18T02:00:32;12.00;;;6.72;;
47960;SDS011;33721;48.852;9.936;2023-09-18T02:02:58;11.35;;;6.00;;
47960;SDS011;33721;48.852;9.936;2023-09-18T02:05:24;12.45;;;6.22;;
47960;SDS011;33721;48.852;9.936;2023-09-18T02:07:50;9.65;;;5.60;;
47960;SDS011;33721;48.852;9.936;2023-09-18T02:10:16;12.20;;;6.10;;
47960;SDS011;33721;48.852;9.936;2023-09-18T02:12:41;9.55;;;5.88;;
47960;SDS011;33721;48.852;9.936;2023-09-18T02:15:07;10.38;;;5.75;;
47960;SDS011;33721;48.852;9.936;2023-09-18T02:17:35;11.57;;;6.05;;
47960;SDS011;33721;48.852;9.936;2023-09-18T02:20:01;10.35;;;5.65;;
47960;SDS011;33721;48.852;9.936;2023-09-18T02:22:31;10.57;;;6.15;;
47960;SDS011;33721;48.852;9.936;2023-09-18T02:24:57;13.18;;;5.85;;
47960;SDS011;33721;48.852;9.936;2023-09-18T02:27:23;9.00;;;5.93;;
47960;SDS011;33721;48.852;9.936;2023-09-18T02:29:49;8.90;;;6.10;;
47960;SDS011;33721;48.852;9.936;2023-09-18T02:32:15;8.85;;;5.70;;
47960;SDS011;33721;48.852;9.936;2023-09-18T02:34:41;10.70;;;6.05;;
47960;SDS011;33721;48.852;9.936;2023-09-18T02:37:06;9.60;;;6.10;;
47960;SDS011;33721;48.852;9.936;2023-09-18T02:39:32;15.27;;;6.25;;
47960;SDS011;33721;48.852;9.936;2023-09-18T02:41:58;11.13;;;6.28;;
47960;SDS011;33721;48.852;9.936;2023-09-18T02:44:23;10.38;;;5.93;;
47960;SDS011;33721;48.852;9.936;2023-09-18T02:46:49;8.48;;;5.38;;
47960;SDS011;33721;48.852;9.936;2023-09-18T02:49:14;11.45;;;6.03;;
47960;SDS011;33721;48.852;9.936;2023-09-18T02:51:40;9.98;;;5.85;;
47960;SDS011;33721;48.852;9.936;2023-09-18T02:54:06;8.43;;;5.68;;
47960;SDS011;33721;48.852;9.936;2023-09-18T02:56:31;8.90;;;5.95;;
47960;SDS011;33721;48.852;9.936;2023-09-18T02:58:57;9.65;;;5.70;;
47960;SDS011;33721;48.852;9.936;2023-09-18T03:01:22;13.38;;;5.65;;
47960;SDS011;33721;48.852;9.936;2023-09-18T03:03:48;14.07;;;6.40;;
47960;SDS011;33721;48.852;9.936;2023-09-18T03:06:14;10.40;;;5.60;;
47960;SDS011;33721;48.852;9.936;2023-09-18T03:08:39;10.68;;;5.32;;
47960;SDS011;33721;48.852;9.936;2023-09-18T03:11:11;10.65;;;5.53;;
47960;SDS011;33721;48.852;9.936;2023-09-18T03:13:42;13.40;;;5.85;;
47960;SDS011;33721;48.852;9.936;2023-09-18T03:16:11;10.27;;;5.57;;
47960;SDS011;33721;48.852;9.936;2023-09-18T03:18:37;10.10;;;5.97;;
47960;SDS011;33721;48.852;9.936;2023-09-18T03:21:03;8.77;;;5.07;;
47960;SDS011;33721;48.852;9.936;2023-09-18T03:23:29;12.38;;;5.85;;
47960;SDS011;33721;48.852;9.936;2023-09-18T03:25:55;11.55;;;5.45;;
47960;SDS011;33721;48.852;9.936;2023-09-18T03:28:20;11.57;;;5.50;;
47960;SDS011;33721;48.852;9.936;2023-09-18T03:30:46;11.85;;;5.70;;
47960;SDS011;33721;48.852;9.936;2023-09-18T03:33:11;12.48;;;5.55;;
47960;SDS011;33721;48.852;9.936;2023-09-18T03:35:55;10.10;;;5.65;;
47960;SDS011;33721;48.852;9.936;2023-09-18T03:38:23;13.52;;;5.60;;
47960;SDS011;33721;48.852;9.936;2023-09-18T03:40:49;11.52;;;5.80;;
47960;SDS011;33721;48.852;9.936;2023-09-18T03:43:15;11.07;;;5.90;;
47960;SDS011;33721;48.852;9.936;2023-09-18T03:45:41;10.25;;;5.93;;
47960;SDS011;33721;48.852;9.936;2023-09-18T03:48:06;9.18;;;5.40;;
47960;SDS011;33721;48.852;9.936;2023-09-18T03:50:32;12.55;;;5.78;;
47960;SDS011;33721;48.852;9.936;2023-09-18T03:52:58;13.10;;;5.57;;
47960;SDS011;33721;48.852;9.936;2023-09-18T03:55:23;10.48;;;5.25;;
47960;SDS011;33721;48.852;9.936;2023-09-18T03:57:49;9.25;;;5.38;;
47960;SDS011;33721;48.852;9.936;2023-09-18T04:00:17;10.52;;;5.60;;
47960;SDS011;33721;48.852;9.936;2023-09-18T04:02:42;10.55;;;5.18;;
47960;SDS011;33721;48.852;9.936;2023-09-18T04:05:08;9.85;;;4.65;;
47960;SDS011;33721;48.852;9.936;2023-09-18T04:07:34;14.15;;;5.50;;
47960;SDS011;33721;48.852;9.936;2023-09-18T04:10:00;11.60;;;6.20;;
47960;SDS011;33721;48.852;9.936;2023-09-18T04:12:26;13.70;;;5.50;;
47960;SDS011;33721;48.852;9.936;2023-09-18T04:14:52;9.15;;;5.45;;
47960;SDS011;33721;48.852;9.936;2023-09-18T04:17:17;11.23;;;5.57;;
47960;SDS011;33721;48.852;9.936;2023-09-18T04:19:43;14.27;;;5.22;;
47960;SDS011;33721;48.852;9.936;2023-09-18T04:22:09;16.52;;;5.25;;
47960;SDS011;33721;48.852;9.936;2023-09-18T04:24:35;11.98;;;5.88;;
47960;SDS011;33721;48.852;9.936;2023-09-18T04:27:01;14.15;;;5.05;;
47960;SDS011;33721;48.852;9.936;2023-09-18T04:29:26;14.00;;;5.05;;
47960;SDS011;33721;48.852;9.936;2023-09-18T04:31:52;10.32;;;5.15;;
47960;SDS011;33721;48.852;9.936;2023-09-18T04:34:19;15.48;;;5.03;;
47960;SDS011;33721;48.852;9.936;2023-09-18T04:36:45;10.57;;;4.88;;
47960;SDS011;33721;48.852;9.936;2023-09-18T04:39:11;16.02;;;4.90;;
47960;SDS011;33721;48.852;9.936;2023-09-18T04:41:37;12.02;;;5.15;;
47960;SDS011;33721;48.852;9.936;2023-09-18T04:44:04;11.18;;;4.68;;
47960;SDS011;33721;48.852;9.936;2023-09-18T04:46:30;7.53;;;4.97;;
47960;SDS011;33721;48.852;9.936;2023-09-18T04:48:56;11.15;;;4.90;;
47960;SDS011;33721;48.852;9.936;2023-09-18T04:51:21;11.32;;;5.00;;
47960;SDS011;33721;48.852;9.936;2023-09-18T04:53:47;12.00;;;4.80;;
47960;SDS011;33721;48.852;9.936;2023-09-18T04:56:12;9.80;;;4.72;;
47960;SDS011;33721;48.852;9.936;2023-09-18T04:58:38;13.73;;;5.03;;
47960;SDS011;33721;48.852;9.936;2023-09-18T05:01:04;10.43;;;4.88;;
47960;SDS011;33721;48.852;9.936;2023-09-18T05:03:32;22.50;;;4.93;;
47960;SDS011;33721;48.852;9.936;2023-09-18T05:05:59;11.45;;;4.35;;
47960;SDS011;33721;48.852;9.936;2023-09-18T05:08:24;14.88;;;5.03;;
47960;SDS011;33721;48.852;9.936;2023-09-18T05:10:50;12.57;;;4.65;;
47960;SDS011;33721;48.852;9.936;2023-09-18T05:13:16;7.32;;;4.55;;
47960;SDS011;33721;48.852;9.936;2023-09-18T05:15:41;9.82;;;4.50;;
47960;SDS011;33721;48.852;9.936;2023-09-18T05:18:07;11.93;;;5.15;;
47960;SDS011;33721;48.852;9.936;2023-09-18T05:20:33;11.60;;;4.43;;
47960;SDS011;33721;48.852;9.936;2023-09-18T05:23:00;11.30;;;4.32;;
47960;SDS011;33721;48.852;9.936;2023-09-18T05:25:27;9.30;;;4.18;;
47960;SDS011;33721;48.852;9.936;2023-09-18T05:27:57;10.75;;;4.25;;
47960;SDS011;33721;48.852;9.936;2023-09-18T05:32:56;9.75;;;4.30;;
47960;SDS011;33721;48.852;9.936;2023-09-18T05:35:22;9.27;;;4.50;;
47960;SDS011;33721;48.852;9.936;2023-09-18T05:37:48;9.50;;;4.00;;
47960;SDS011;33721;48.852;9.936;2023-09-18T05:40:16;11.55;;;4.82;;
47960;SDS011;33721;48.852;9.936;2023-09-18T05:42:42;16.30;;;4.65;;
47960;SDS011;33721;48.852;9.936;2023-09-18T05:45:10;9.73;;;4.50;;
47960;SDS011;33721;48.852;9.936;2023-09-18T05:47:36;11.32;;;4.72;;
47960;SDS011;33721;48.852;9.936;2023-09-18T05:50:04;10.85;;;5.22;;
47960;SDS011;33721;48.852;9.936;2023-09-18T05:52:31;11.93;;;5.28;;
47960;SDS011;33721;48.852;9.936;2023-09-18T05:54:58;9.70;;;4.60;;
47960;SDS011;33721;48.852;9.936;2023-09-18T05:57:24;15.50;;;5.45;;
47960;SDS011;33721;48.852;9.936;2023-09-18T05:59:51;9.68;;;5.03;;
47960;SDS011;33721;48.852;9.936;2023-09-18T06:02:17;17.20;;;5.90;;
47960;SDS011;33721;48.852;9.936;2023-09-18T06:04:43;12.15;;;4.72;;
47960;SDS011;33721;48.852;9.936;2023-09-18T06:07:08;10.77;;;4.88;;
47960;SDS011;33721;48.852;9.936;2023-09-18T06:09:34;12.30;;;4.82;;
47960;SDS011;33721;48.852;9.936;2023-09-18T06:12:00;11.38;;;4.90;;
47960;SDS011;33721;48.852;9.936;2023-09-18T06:14:25;12.55;;;5.32;;
47960;SDS011;33721;48.852;9.936;2023-09-18T06:16:51;9.48;;;5.13;;
47960;SDS011;33721;48.852;9.936;2023-09-18T06:19:16;12.57;;;5.30;;
47960;SDS011;33721;48.852;9.936;2023-09-18T06:21:42;12.75;;;4.93;;
47960;SDS011;33721;48.852;9.936;2023-09-18T06:24:09;7.50;;;4.90;;
47960;SDS011;33721;48.852;9.936;2023-09-18T06:26:35;12.35;;;5.25;;
47960;SDS011;33721;48.852;9.936;2023-09-18T06:29:01;10.63;;;4.85;;
47960;SDS011;33721;48.852;9.936;2023-09-18T06:31:30;14.20;;;4.38;;
47960;SDS011;33721;48.852;9.936;2023-09-18T06:33:56;13.45;;;4.10;;
47960;SDS011;33721;48.852;9.936;2023-09-18T06:36:22;12.48;;;4.40;;
47960;SDS011;33721;48.852;9.936;2023-09-18T06:38:47;13.55;;;4.43;;
47960;SDS011;33721;48.852;9.936;2023-09-18T06:41:13;15.23;;;4.78;;
47960;SDS011;33721;48.852;9.936;2023-09-18T06:43:39;12.05;;;4.32;;
47960;SDS011;33721;48.852;9.936;2023-09-18T06:46:06;15.55;;;4.97;;
47960;SDS011;33721;48.852;9.936;2023-09-18T06:48:32;11.57;;;4.35;;
47960;SDS011;33721;48.852;9.936;2023-09-18T06:50:58;10.20;;;4.40;;
47960;SDS011;33721;48.852;9.936;2023-09-18T06:53:27;9.52;;;3.88;;
47960;SDS011;33721;48.852;9.936;2023-09-18T06:55:53;11.60;;;4.32;;
47960;SDS011;33721;48.852;9.936;2023-09-18T06:58:19;9.32;;;3.80;;
47960;SDS011;33721;48.852;9.936;2023-09-18T07:00:45;9.15;;;3.58;;
47960;SDS011;33721;48.852;9.936;2023-09-18T07:03:11;14.48;;;4.15;;
47960;SDS011;33721;48.852;9.936;2023-09-18T07:05:37;10.23;;;3.80;;
47960;SDS011;33721;48.852;9.936;2023-09-18T07:08:05;9.38;;;4.05;;
47960;SDS011;33721;48.852;9.936;2023-09-18T07:10:34;13.75;;;3.88;;
47960;SDS011;33721;48.852;9.936;2023-09-18T07:13:00;13.02;;;3.75;;
47960;SDS011;33721;48.852;9.936;2023-09-18T07:15:26;17.00;;;3.78;;
47960;SDS011;33721;48.852;9.936;2023-09-18T07:17:52;12.63;;;3.40;;
47960;SDS011;33721;48.852;9.936;2023-09-18T07:20:17;9.20;;;3.78;;
47960;SDS011;33721;48.852;9.936;2023-09-18T07:22:45;17.33;;;3.78;;
47960;SDS011;33721;48.852;9.936;2023-09-18T07:25:12;10.13;;;3.90;;
47960;SDS011;33721;48.852;9.936;2023-09-18T07:27:38;15.70;;;3.92;;
47960;SDS011;33721;48.852;9.936;2023-09-18T07:32:38;12.57;;;3.83;;
47960;SDS011;33721;48.852;9.936;2023-09-18T07:35:06;12.23;;;3.38;;
47960;SDS011;33721;48.852;9.936;2023-09-18T07:37:32;12.52;;;3.95;;
47960;SDS011;33721;48.852;9.936;2023-09-18T07:39:58;10.57;;;3.80;;
47960;SDS011;33721;48.852;9.936;2023-09-18T07:42:24;8.90;;;3.60;;
47960;SDS011;33721;48.852;9.936;2023-09-18T07:44:50;15.98;;;3.83;;
47960;SDS011;33721;48.852;9.936;2023-09-18T07:47:16;11.07;;;3.22;;
47960;SDS011;33721;48.852;9.936;2023-09-18T07:49:42;14.15;;;3.40;;
47960;SDS011;33721;48.852;9.936;2023-09-18T07:52:07;17.50;;;2.80;;
47960;SDS011;33721;48.852;9.936;2023-09-18T07:54:33;12.77;;;2.42;;
47960;SDS011;33721;48.852;9.936;2023-09-18T07:56:59;9.23;;;2.85;;
47960;SDS011;33721;48.852;9.936;2023-09-18T07:59:25;14.43;;;2.70;;
47960;SDS011;33721;48.852;9.936;2023-09-18T08:01:51;11.75;;;3.63;;
47960;SDS011;33721;48.852;9.936;2023-09-18T08:04:17;13.68;;;2.63;;
47960;SDS011;33721;48.852;9.936;2023-09-18T08:06:42;13.57;;;2.67;;
47960;SDS011;33721;48.852;9.936;2023-09-18T08:09:08;15.75;;;2.60;;
47960;SDS011;33721;48.852;9.936;2023-09-18T08:11:41;9.30;;;2.65;;
47960;SDS011;33721;48.852;9.936;2023-09-18T08:14:08;6.60;;;2.42;;
47960;SDS011;33721;48.852;9.936;2023-09-18T08:16:34;6.95;;;2.65;;
47960;SDS011;33721;48.852;9.936;2023-09-18T08:19:03;13.27;;;2.67;;
47960;SDS011;33721;48.852;9.936;2023-09-18T08:21:29;11.45;;;2.72;;
47960;SDS011;33721;48.852;9.936;2023-09-18T08:23:55;10.27;;;2.65;;
47960;SDS011;33721;48.852;9.936;2023-09-18T08:26:21;9.00;;;2.28;;
47960;SDS011;33721;48.852;9.936;2023-09-18T08:28:50;14.87;;;2.60;;
47960;SDS011;33721;48.852;9.936;2023-09-18T08:31:16;8.48;;;2.22;;
47960;SDS011;33721;48.852;9.936;2023-09-18T08:33:44;10.93;;;2.40;;
47960;SDS011;33721;48.852;9.936;2023-09-18T08:36:10;14.23;;;2.60;;
47960;SDS011;33721;48.852;9.936;2023-09-18T08:38:35;6.95;;;2.13;;
47960;SDS011;33721;48.852;9.936;2023-09-18T08:41:01;9.00;;;2.60;;
47960;SDS011;33721;48.852;9.936;2023-09-18T08:43:28;11.10;;;2.10;;
47960;SDS011;33721;48.852;9.936;2023-09-18T08:45:56;11.18;;;2.30;;
47960;SDS011;33721;48.852;9.936;2023-09-18T08:48:27;17.33;;;2.47;;
47960;SDS011;33721;48.852;9.936;2023-09-18T08:51:01;10.98;;;2.47;;
47960;SDS011;33721;48.852;9.936;2023-09-18T08:53:30;7.47;;;2.00;;
47960;SDS011;33721;48.852;9.936;2023-09-18T08:55:56;11.73;;;2.08;;
47960;SDS011;33721;48.852;9.936;2023-09-18T08:58:24;10.63;;;1.90;;
47960;SDS011;33721;48.852;9.936;2023-09-18T09:00:51;8.57;;;2.00;;
47960;SDS011;33721;48.852;9.936;2023-09-18T09:03:18;11.18;;;1.80;;
47960;SDS011;33721;48.852;9.936;2023-09-18T09:05:43;20.02;;;2.35;;
47960;SDS011;33721;48.852;9.936;2023-09-18T09:08:09;8.80;;;1.95;;
47960;SDS011;33721;48.852;9.936;2023-09-18T09:10:35;9.90;;;2.15;;
47960;SDS011;33721;48.852;9.936;2023-09-18T09:13:01;11.35;;;2.17;;
47960;SDS011;33721;48.852;9.936;2023-09-18T09:15:34;19.17;;;1.88;;
47960;SDS011;33721;48.852;9.936;2023-09-18T09:18:13;7.72;;;1.75;;
47960;SDS011;33721;48.852;9.936;2023-09-18T09:20:52;6.03;;;1.52;;
47960;SDS011;33721;48.852;9.936;2023-09-18T09:23:22;11.30;;;1.73;;
47960;SDS011;33721;48.852;9.936;2023-09-18T09:25:48;8.73;;;1.35;;
47960;SDS011;33721;48.852;9.936;2023-09-18T09:28:14;9.13;;;1.40;;
47960;SDS011;33721;48.852;9.936;2023-09-18T09:30:41;10.98;;;1.70;;
47960;SDS011;33721;48.852;9.936;2023-09-18T09:33:10;10.43;;;1.50;;
47960;SDS011;33721;48.852;9.936;2023-09-18T09:35:37;8.23;;;1.60;;
47960;SDS011;33721;48.852;9.936;2023-09-18T09:38:11;11.43;;;1.55;;
47960;SDS011;33721;48.852;9.936;2023-09-18T09:40:40;4.05;;;1.20;;
47960;SDS011;33721;48.852;9.936;2023-09-18T09:43:08;15.02;;;1.42;;
47960;SDS011;33721;48.852;9.936;2023-09-18T09:45:36;9.50;;;1.33;;
47960;SDS011;33721;48.852;9.936;2023-09-18T09:48:05;4.60;;;1.80;;
47960;SDS011;33721;48.852;9.936;2023-09-18T09:50:31;9.27;;;1.60;;
47960;SDS011;33721;48.852;9.936;2023-09-18T09:52:57;6.32;;;1.80;;
47960;SDS011;33721;48.852;9.936;2023-09-18T09:55:31;4.75;;;1.40;;
47960;SDS011;33721;48.852;9.936;2023-09-18T09:58:02;5.47;;;1.48;;
47960;SDS011;33721;48.852;9.936;2023-09-18T10:00:33;3.90;;;1.30;;
47960;SDS011;33721;48.852;9.936;2023-09-18T10:03:12;9.73;;;1.77;;
47960;SDS011;33721;48.852;9.936;2023-09-18T10:05:40;7.78;;;1.35;;
47960;SDS011;33721;48.852;9.936;2023-09-18T10:08:14;4.57;;;1.38;;
47960;SDS011;33721;48.852;9.936;2023-09-18T10:10:52;6.18;;;1.30;;
47960;SDS011;33721;48.852;9.936;2023-09-18T10:13:20;9.25;;;1.60;;
47960;SDS011;33721;48.852;9.936;2023-09-18T10:15:52;8.80;;;1.77;;
47960;SDS011;33721;48.852;9.936;2023-09-18T10:18:27;14.38;;;1.52;;
47960;SDS011;33721;48.852;9.936;2023-09-18T10:21:00;11.55;;;2.20;;
47960;SDS011;33721;48.852;9.936;2023-09-18T10:26:13;9.13;;;1.90;;
47960;SDS011;33721;48.852;9.936;2023-09-18T10:28:46;10.98;;;1.90;;
47960;SDS011;33721;48.852;9.936;2023-09-18T10:31:13;8.07;;;1.88;;
47960;SDS011;33721;48.852;9.936;2023-09-18T10:33:39;21.30;;;2.05;;
47960;SDS011;33721;48.852;9.936;2023-09-18T10:36:06;35.97;;;2.30;;
47960;SDS011;33721;48.852;9.936;2023-09-18T10:38:34;37.17;;;3.50;;
47960;SDS011;33721;48.852;9.936;2023-09-18T10:41:03;8.25;;;1.80;;
47960;SDS011;33721;48.852;9.936;2023-09-18T10:43:30;5.85;;;1.70;;
47960;SDS011;33721;48.852;9.936;2023-09-18T10:45:55;11.50;;;1.50;;
47960;SDS011;33721;48.852;9.936;2023-09-18T10:48:22;7.88;;;1.30;;
47960;SDS011;33721;48.852;9.936;2023-09-18T10:50:48;5.35;;;1.45;;
47960;SDS011;33721;48.852;9.936;2023-09-18T10:53:15;5.00;;;1.40;;
47960;SDS011;33721;48.852;9.936;2023-09-18T10:55:44;9.07;;;1.10;;
47960;SDS011;33721;48.852;9.936;2023-09-18T10:58:10;3.88;;;0.88;;
47960;SDS011;33721;48.852;9.936;2023-09-18T11:00:35;6.55;;;1.48;;
47960;SDS011;33721;48.852;9.936;2023-09-18T11:03:14;5.57;;;0.90;;
47960;SDS011;33721;48.852;9.936;2023-09-18T11:05:47;8.20;;;1.10;;
47960;SDS011;33721;48.852;9.936;2023-09-18T11:10:56;3.72;;;1.23;;
47960;SDS011;33721;48.852;9.936;2023-09-18T11:13:40;7.35;;;1.20;;
47960;SDS011;33721;48.852;9.936;2023-09-18T11:18:40;7.50;;;1.10;;
47960;SDS011;33721;48.852;9.936;2023-09-18T11:21:06;5.80;;;1.17;;
47960;SDS011;33721;48.852;9.936;2023-09-18T11:23:36;4.55;;;1.15;;
47960;SDS011;33721;48.852;9.936;2023-09-18T11:26:14;2.85;;;0.98;;
47960;SDS011;33721;48.852;9.936;2023-09-18T11:28:40;3.35;;;1.10;;
47960;SDS011;33721;48.852;9.936;2023-09-18T11:31:07;5.60;;;1.20;;
47960;SDS011;33721;48.852;9.936;2023-09-18T11:33:41;3.97;;;1.17;;
47960;SDS011;33721;48.852;9.936;2023-09-18T11:36:28;3.70;;;1.15;;
47960;SDS011;33721;48.852;9.936;2023-09-18T11:38:57;3.63;;;1.42;;
47960;SDS011;33721;48.852;9.936;2023-09-18T11:41:28;6.38;;;1.23;;
47960;SDS011;33721;48.852;9.936;2023-09-18T11:46:39;3.90;;;1.20;;
47960;SDS011;33721;48.852;9.936;2023-09-18T11:49:08;5.32;;;1.40;;
47960;SDS011;33721;48.852;9.936;2023-09-18T11:54:01;4.43;;;1.23;;
47960;SDS011;33721;48.852;9.936;2023-09-18T11:56:29;3.05;;;1.17;;
47960;SDS011;33721;48.852;9.936;2023-09-18T11:58:55;6.82;;;1.35;;
47960;SDS011;33721;48.852;9.936;2023-09-18T12:01:21;4.28;;;1.38;;
47960;SDS011;33721;48.852;9.936;2023-09-18T12:03:53;3.45;;;1.40;;
47960;SDS011;33721;48.852;9.936;2023-09-18T12:06:19;5.13;;;1.20;;
47960;SDS011;33721;48.852;9.936;2023-09-18T12:08:46;5.47;;;1.10;;
47960;SDS011;33721;48.852;9.936;2023-09-18T12:11:12;3.40;;;1.30;;
47960;SDS011;33721;48.852;9.936;2023-09-18T12:13:42;8.70;;;1.20;;
47960;SDS011;33721;48.852;9.936;2023-09-18T12:16:08;5.43;;;1.20;;
47960;SDS011;33721;48.852;9.936;2023-09-18T12:18:34;6.15;;;1.38;;
47960;SDS011;33721;48.852;9.936;2023-09-18T12:21:05;1.02;;;0.47;;
47960;SDS011;33721;48.852;9.936;2023-09-18T12:23:38;3.78;;;0.73;;
47960;SDS011;33721;48.852;9.936;2023-09-18T12:26:04;1.38;;;0.68;;
47960;SDS011;33721;48.852;9.936;2023-09-18T12:28:37;6.05;;;1.00;;
47960;SDS011;33721;48.852;9.936;2023-09-18T12:31:03;2.35;;;0.88;;
47960;SDS011;33721;48.852;9.936;2023-09-18T12:33:36;2.17;;;0.88;;
47960;SDS011;33721;48.852;9.936;2023-09-18T12:36:03;4.70;;;1.13;;
47960;SDS011;33721;48.852;9.936;2023-09-18T12:38:30;4.60;;;1.27;;
47960;SDS011;33721;48.852;9.936;2023-09-18T12:40:56;3.63;;;1.70;;
47960;SDS011;33721;48.852;9.936;2023-09-18T12:43:31;3.45;;;1.42;;
47960;SDS011;33721;48.852;9.936;2023-09-18T12:46:05;5.40;;;1.23;;
47960;SDS011;33721;48.852;9.936;2023-09-18T12:48:31;8.77;;;1.27;;
47960;SDS011;33721;48.852;9.936;2023-09-18T12:51:06;2.47;;;1.05;;
47960;SDS011;33721;48.852;9.936;2023-09-18T12:53:31;4.53;;;0.90;;
47960;SDS011;33721;48.852;9.936;2023-09-18T12:56:08;4.68;;;1.10;;
47960;SDS011;33721;48.852;9.936;2023-09-18T12:58:37;3.15;;;1.13;;
47960;SDS011;33721;48.852;9.936;2023-09-18T13:01:04;4.38;;;0.77;;
47960;SDS011;33721;48.852;9.936;2023-09-18T13:03:34;3.28;;;0.90;;
47960;SDS011;33721;48.852;9.936;2023-09-18T13:06:10;2.78;;;1.13;;
47960;SDS011;33721;48.852;9.936;2023-09-18T13:08:37;3.80;;;0.98;;
47960;SDS011;33721;48.852;9.936;2023-09-18T13:11:03;3.03;;;1.10;;
47960;SDS011;33721;48.852;9.936;2023-09-18T13:13:30;3.55;;;1.35;;
47960;SDS011;33721;48.852;9.936;2023-09-18T13:15:59;2.38;;;0.85;;
47960;SDS011;33721;48.852;9.936;2023-09-18T13:18:25;4.40;;;1.00;;
47960;SDS011;33721;48.852;9.936;2023-09-18T13:20:52;3.28;;;0.93;;
47960;SDS011;33721;48.852;9.936;2023-09-18T13:23:18;3.50;;;1.17;;
47960;SDS011;33721;48.852;9.936;2023-09-18T13:25:45;4.03;;;1.00;;
47960;SDS011;33721;48.852;9.936;2023-09-18T13:28:12;2.47;;;1.08;;
47960;SDS011;33721;48.852;9.936;2023-09-18T13:30:39;5.28;;;1.20;;
47960;SDS011;33721;48.852;9.936;2023-09-18T13:35:33;3.65;;;0.85;;
47960;SDS011;33721;48.852;9.936;2023-09-18T13:38:00;2.03;;;1.00;;
47960;SDS011;33721;48.852;9.936;2023-09-18T13:40:26;3.40;;;1.10;;
47960;SDS011;33721;48.852;9.936;2023-09-18T13:42:53;5.43;;;1.27;;
47960;SDS011;33721;48.852;9.936;2023-09-18T13:45:19;10.05;;;0.95;;
47960;SDS011;33721;48.852;9.936;2023-09-18T13:47:45;4.80;;;1.00;;
47960;SDS011;33721;48.852;9.936;2023-09-18T13:50:10;2.83;;;1.00;;
47960;SDS011;33721;48.852;9.936;2023-09-18T13:52:38;2.25;;;1.20;;
47960;SDS011;33721;48.852;9.936;2023-09-18T13:55:04;2.63;;;0.88;;
47960;SDS011;33721;48.852;9.936;2023-09-18T13:57:34;3.20;;;1.05;;
47960;SDS011;33721;48.852;9.936;2023-09-18T14:00:00;2.40;;;0.73;;
47960;SDS011;33721;48.852;9.936;2023-09-18T14:02:30;2.80;;;1.20;;
47960;SDS011;33721;48.852;9.936;2023-09-18T14:04:56;3.03;;;1.20;;
47960;SDS011;33721;48.852;9.936;2023-09-18T14:07:21;3.80;;;1.10;;
47960;SDS011;33721;48.852;9.936;2023-09-18T14:09:47;5.43;;;1.13;;
47960;SDS011;33721;48.852;9.936;2023-09-18T14:12:13;4.45;;;1.08;;
47960;SDS011;33721;48.852;9.936;2023-09-18T14:14:40;7.03;;;1.13;;
47960;SDS011;33721;48.852;9.936;2023-09-18T14:17:07;5.40;;;0.90;;
47960;SDS011;33721;48.852;9.936;2023-09-18T14:19:33;5.03;;;2.08;;
47960;SDS011;33721;48.852;9.936;2023-09-18T14:21:59;3.22;;;0.95;;
47960;SDS011;33721;48.852;9.936;2023-09-18T14:24:29;3.13;;;1.08;;
47960;SDS011;33721;48.852;9.936;2023-09-18T14:26:55;3.35;;;1.10;;
47960;SDS011;33721;48.852;9.936;2023-09-18T14:29:21;4.05;;;0.82;;
47960;SDS011;33721;48.852;9.936;2023-09-18T14:31:46;8.00;;;1.23;;
47960;SDS011;33721;48.852;9.936;2023-09-18T14:34:12;2.90;;;1.13;;
47960;SDS011;33721;48.852;9.936;2023-09-18T14:36:38;2.75;;;0.93;;
47960;SDS011;33721;48.852;9.936;2023-09-18T14:39:05;2.47;;;1.13;;
47960;SDS011;33721;48.852;9.936;2023-09-18T14:41:34;3.00;;;1.02;;
47960;SDS011;33721;48.852;9.936;2023-09-18T14:44:00;3.65;;;1.20;;
47960;SDS011;33721;48.852;9.936;2023-09-18T14:46:28;2.30;;;0.95;;
47960;SDS011;33721;48.852;9.936;2023-09-18T14:48:54;3.55;;;0.93;;
47960;SDS011;33721;48.852;9.936;2023-09-18T14:51:19;2.72;;;1.00;;
47960;SDS011;33721;48.852;9.936;2023-09-18T14:53:45;3.50;;;1.00;;
47960;SDS011;33721;48.852;9.936;2023-09-18T14:56:11;4.93;;;1.27;;
47960;SDS011;33721;48.852;9.936;2023-09-18T14:58:36;4.22;;;1.17;;
47960;SDS011;33721;48.852;9.936;2023-09-18T15:01:02;2.30;;;1.10;;
47960;SDS011;33721;48.852;9.936;2023-09-18T15:03:28;3.63;;;1.23;;
47960;SDS011;33721;48.852;9.936;2023-09-18T15:05:54;4.45;;;1.35;;